createdAt,value
2022-10-19T00:01:31.441Z,26.48
2022-10-19T00:03:59.995Z,25.48
2022-10-19T00:06:36.505Z,26.52
2022-10-19T00:09:15.601Z,25.48
2022-10-19T00:11:46.008Z,26.42
2022-10-19T00:14:16.044Z,25.60
2022-10-19T00:16:47.412Z,25.48
2022-10-19T00:19:18.297Z,24.83
2022-10-19T00:21:45.754Z,25.90
2022-10-19T00:24:12.591Z,25.15
2022-10-19T00:26:39.476Z,25.50
2022-10-19T00:29:06.343Z,25.88
2022-10-19T00:31:33.225Z,25.08
2022-10-19T00:34:02.996Z,24.88
2022-10-19T00:36:32.754Z,25.63
2022-10-19T00:39:00.079Z,24.23
2022-10-19T00:41:30.241Z,23.65
2022-10-19T00:44:06.331Z,24.70
2022-10-19T00:46:38.204Z,24.55
2022-10-19T00:49:24.868Z,25.48
2022-10-19T00:51:55.584Z,25.35
2022-10-19T00:54:23.332Z,25.07
2022-10-19T00:56:56.395Z,24.75
2022-10-19T00:59:25.335Z,24.67
2022-10-19T01:01:52.966Z,24.10
2022-10-19T01:04:24.802Z,24.58
2022-10-19T01:06:54.051Z,25.85
2022-10-19T01:09:29.248Z,25.00
2022-10-19T01:12:14.125Z,25.02
2022-10-19T01:15:09.191Z,25.40
2022-10-19T01:17:54.903Z,24.27
2022-10-19T01:21:03.034Z,25.02
2022-10-19T01:23:54.417Z,25.35
2022-10-19T01:26:29.836Z,23.83
2022-10-19T01:29:15.649Z,26.45
2022-10-19T01:31:48.859Z,24.23
2022-10-19T01:34:24.707Z,26.02
2022-10-19T01:37:02.909Z,25.65
2022-10-19T01:39:49.130Z,24.80
2022-10-19T01:42:29.561Z,25.05
2022-10-19T01:45:18.159Z,26.25
2022-10-19T01:48:09.528Z,24.42
2022-10-19T01:50:38.772Z,22.45
2022-10-19T01:53:08.577Z,25.10
2022-10-19T01:55:42.889Z,25.35
2022-10-19T01:58:13.441Z,24.88
2022-10-19T02:00:43.749Z,23.88
2022-10-19T02:03:22.454Z,25.45
2022-10-19T02:05:51.725Z,23.88
2022-10-19T02:08:31.629Z,23.42
2022-10-19T02:10:59.909Z,23.13
2022-10-19T02:13:28.629Z,22.33
2022-10-19T02:15:59.682Z,22.17
2022-10-19T02:18:36.469Z,24.40
2022-10-19T02:21:05.256Z,25.10
2022-10-19T02:23:32.499Z,24.15
2022-10-19T02:25:59.804Z,24.80
2022-10-19T02:28:31.267Z,23.77
2022-10-19T02:31:02.190Z,23.85
2022-10-19T02:33:30.065Z,23.73
2022-10-19T02:35:57.926Z,23.33
2022-10-19T02:38:25.583Z,22.88
2022-10-19T02:41:02.715Z,23.00
2022-10-19T02:43:37.622Z,23.05
2022-10-19T02:46:13.535Z,22.17
2022-10-19T02:48:45.695Z,22.42
2022-10-19T02:51:33.973Z,23.10
2022-10-19T02:54:04.147Z,23.63
2022-10-19T02:56:33.342Z,24.92
2022-10-19T02:59:00.582Z,23.90
2022-10-19T03:01:30.294Z,22.98
2022-10-19T03:03:57.166Z,21.30
2022-10-19T03:06:23.890Z,24.02
2022-10-19T03:08:53.189Z,25.27
2022-10-19T03:11:20.136Z,23.50
2022-10-19T03:13:49.511Z,23.95
2022-10-19T03:16:16.252Z,24.67
2022-10-19T03:18:42.909Z,25.13
2022-10-19T03:21:12.129Z,27.17
2022-10-19T03:23:40.343Z,26.40
2022-10-19T03:26:11.465Z,27.25
2022-10-19T03:28:39.373Z,28.23
2022-10-19T03:31:06.525Z,27.08
2022-10-19T03:33:33.114Z,26.42
2022-10-19T03:36:27.930Z,26.17
2022-10-19T03:38:57.157Z,27.25
2022-10-19T03:41:27.279Z,26.10
2022-10-19T03:43:54.325Z,26.65
2022-10-19T03:46:22.924Z,27.08
2022-10-19T03:48:50.851Z,27.70
2022-10-19T03:51:24.756Z,26.98
2022-10-19T03:54:03.542Z,25.70
2022-10-19T03:56:32.161Z,26.38
2022-10-19T03:59:04.520Z,26.13
2022-10-19T04:01:40.203Z,25.65
2022-10-19T04:04:14.587Z,26.10
2022-10-19T04:06:44.311Z,26.35
2022-10-19T04:09:17.512Z,26.50
2022-10-19T04:11:47.747Z,24.58
2022-10-19T04:14:22.977Z,26.63
2022-10-19T04:17:03.579Z,25.35
2022-10-19T04:19:30.817Z,26.23
2022-10-19T04:21:58.679Z,26.70
2022-10-19T04:24:28.866Z,25.40
2022-10-19T04:26:56.938Z,25.35
2022-10-19T04:29:29.494Z,25.45
2022-10-19T04:32:00.998Z,24.75
2022-10-19T04:34:30.657Z,26.63
2022-10-19T04:37:01.345Z,24.73
2022-10-19T04:39:28.896Z,24.48
2022-10-19T04:41:55.950Z,26.38
2022-10-19T04:44:25.436Z,24.13
2022-10-19T04:46:52.598Z,25.73
2022-10-19T04:49:20.338Z,26.38
2022-10-19T04:51:47.082Z,26.08
2022-10-19T04:54:13.763Z,25.38
2022-10-19T04:56:40.480Z,27.10
2022-10-19T04:59:07.423Z,26.77
2022-10-19T05:01:34.109Z,26.73
2022-10-19T05:04:03.008Z,70.65
2022-10-19T05:06:31.216Z,32.15
2022-10-19T05:08:58.585Z,28.20
2022-10-19T05:11:25.717Z,27.65
2022-10-19T05:13:52.686Z,28.30
2022-10-19T05:16:22.201Z,28.73
2022-10-19T05:18:53.567Z,27.08
2022-10-19T05:21:21.977Z,28.40
2022-10-19T05:23:53.207Z,28.10
2022-10-19T05:26:22.395Z,26.73
2022-10-19T06:14:53.618Z,26.92
2022-10-19T06:17:20.405Z,26.30
2022-10-19T06:19:47.191Z,26.88
2022-10-19T06:22:13.902Z,27.05
2022-10-19T06:24:41.045Z,28.40
2022-10-19T06:27:09.723Z,27.73
2022-10-19T06:29:36.508Z,27.00
2022-10-19T06:32:03.298Z,27.40
2022-10-19T06:34:30.148Z,26.58
2022-10-19T06:36:57.087Z,26.02
2022-10-19T06:39:23.828Z,26.05
2022-10-19T06:41:53.112Z,26.42
2022-10-19T06:44:21.001Z,27.27
2022-10-19T06:46:47.754Z,26.95
2022-10-19T06:49:14.986Z,26.10
2022-10-19T06:51:41.919Z,27.77
2022-10-19T06:54:08.679Z,27.48
2022-10-19T06:56:35.386Z,27.98
2022-10-19T06:59:02.127Z,28.65
2022-10-19T07:01:29.108Z,29.52
2022-10-19T07:03:56.415Z,28.75
2022-10-19T07:06:23.712Z,33.08
2022-10-19T07:08:50.699Z,27.70
2022-10-19T07:11:22.837Z,26.63
2022-10-19T07:13:49.949Z,26.25
2022-10-19T07:16:21.220Z,28.02
2022-10-19T07:18:52.973Z,28.00
2022-10-19T07:21:21.665Z,28.23
2022-10-19T07:23:49.963Z,27.98
2022-10-19T07:26:23.962Z,29.13
2022-10-19T07:28:51.307Z,30.23
2022-10-19T07:31:20.944Z,29.40
2022-10-19T07:33:53.077Z,30.67
2022-10-19T07:36:19.878Z,33.70
2022-10-19T07:38:46.613Z,33.30
2022-10-19T07:41:17.746Z,34.45
2022-10-19T07:43:46.087Z,33.72
2022-10-19T07:46:18.823Z,34.20
2022-10-19T07:48:45.860Z,34.35
2022-10-19T07:51:15.252Z,33.30
2022-10-19T07:53:44.558Z,33.70
2022-10-19T07:56:14.193Z,32.47
2022-10-19T07:58:41.935Z,35.05
2022-10-19T08:01:12.134Z,33.15
2022-10-19T08:06:28.740Z,34.17
2022-10-19T08:08:56.079Z,35.67
2022-10-19T08:11:30.024Z,35.05
2022-10-19T08:14:00.022Z,34.47
2022-10-19T08:16:40.636Z,35.47
2022-10-19T08:19:09.806Z,34.78
2022-10-19T08:21:40.401Z,32.47
2022-10-19T08:24:08.512Z,31.45
2022-10-19T08:26:38.414Z,33.45
2022-10-19T08:29:12.364Z,35.45
2022-10-19T08:31:40.202Z,36.78
2022-10-19T08:34:07.599Z,35.47
2022-10-19T08:36:35.800Z,36.78
2022-10-19T08:39:08.582Z,37.17
2022-10-19T08:41:38.243Z,36.25
2022-10-19T08:44:36.203Z,33.25
2022-10-19T08:47:10.057Z,37.35
2022-10-19T08:49:39.775Z,36.80
2022-10-19T08:52:29.571Z,37.33
2022-10-19T08:55:18.141Z,37.90
2022-10-19T08:58:08.642Z,37.17
2022-10-19T09:00:54.479Z,39.22
2022-10-19T09:03:37.640Z,38.33
2022-10-19T09:06:32.143Z,35.53
2022-10-19T09:08:59.745Z,32.22
2022-10-19T09:11:34.413Z,36.30
2022-10-19T09:14:12.103Z,37.08
2022-10-19T09:16:38.901Z,34.65
2022-10-19T09:19:15.629Z,34.80
2022-10-19T09:22:18.341Z,36.08
2022-10-19T09:24:55.640Z,34.13
2022-10-19T09:27:29.871Z,33.17
2022-10-19T09:30:04.471Z,32.22
2022-10-19T09:32:38.175Z,35.92
2022-10-19T09:35:28.114Z,32.95
2022-10-19T09:37:58.514Z,33.75
2022-10-19T09:40:31.030Z,33.22
2022-10-19T09:43:08.838Z,33.30
2022-10-19T09:46:00.433Z,35.10
2022-10-19T09:48:35.434Z,37.40
2022-10-19T09:51:10.631Z,36.80
2022-10-19T09:53:38.949Z,38.13
2022-10-19T09:56:08.434Z,33.35
2022-10-19T09:58:53.789Z,37.58
2022-10-19T10:01:41.770Z,33.80
2022-10-19T10:04:18.990Z,35.25
2022-10-19T10:06:50.227Z,39.03
2022-10-19T10:09:29.425Z,35.65
2022-10-19T10:12:00.515Z,37.42
2022-10-19T10:14:32.085Z,39.47
2022-10-19T10:19:58.858Z,39.35
2022-10-19T10:22:34.318Z,37.95
2022-10-19T10:25:01.908Z,41.70
2022-10-19T10:27:32.096Z,40.65
2022-10-19T10:30:00.486Z,38.72
2022-10-19T10:32:28.925Z,38.17
2022-10-19T10:35:46.855Z,42.45
2022-10-19T10:38:29.685Z,36.22
2022-10-19T10:41:12.884Z,37.28
2022-10-19T10:44:07.499Z,46.20
2022-10-19T10:46:37.319Z,39.90
2022-10-19T10:49:18.698Z,42.40
2022-10-19T10:54:32.038Z,42.25
2022-10-19T11:00:08.325Z,43.38
2022-10-19T11:02:48.092Z,41.40
2022-10-19T11:05:47.553Z,42.75
2022-10-19T11:08:51.575Z,35.65
2022-10-19T11:11:28.185Z,39.63
2022-10-19T11:14:08.654Z,39.78
2022-10-19T11:16:41.851Z,41.35
2022-10-19T11:19:20.364Z,39.97
2022-10-19T11:22:15.490Z,44.33
2022-10-19T11:24:55.418Z,40.88
2022-10-19T11:27:43.597Z,36.15
2022-10-19T11:30:24.670Z,38.22
2022-10-19T11:33:35.364Z,38.10
2022-10-19T11:36:31.814Z,38.78
2022-10-19T11:39:22.641Z,41.33
2022-10-19T11:42:06.948Z,43.70
2022-10-19T11:44:36.516Z,43.58
2022-10-19T11:47:24.471Z,40.38
2022-10-19T11:50:02.486Z,36.55
2022-10-19T11:53:00.899Z,42.58
2022-10-19T11:55:52.433Z,43.13
2022-10-19T11:58:49.886Z,35.63
2022-10-19T12:01:45.667Z,40.58
2022-10-19T12:04:38.758Z,40.00
2022-10-19T12:07:43.896Z,38.00
2022-10-19T12:10:29.545Z,39.47
2022-10-19T12:13:03.673Z,36.60
2022-10-19T12:15:39.752Z,38.67
2022-10-19T12:18:32.366Z,38.47
2022-10-19T12:21:04.795Z,34.38
2022-10-19T12:23:35.549Z,34.72
2022-10-19T12:26:05.953Z,37.08
2022-10-19T12:28:35.953Z,35.00
2022-10-19T12:31:04.884Z,33.53
2022-10-19T12:33:37.103Z,38.90
2022-10-19T12:36:03.803Z,36.90
2022-10-19T12:38:45.988Z,44.30
2022-10-19T12:41:20.318Z,39.50
2022-10-19T12:43:56.381Z,35.85
2022-10-19T12:46:42.950Z,38.20
2022-10-19T12:49:31.620Z,30.83
2022-10-19T12:52:53.188Z,38.10
2022-10-19T12:55:35.100Z,33.53
2022-10-19T12:58:17.075Z,36.25
2022-10-19T13:01:07.791Z,31.20
2022-10-19T13:03:41.321Z,35.23
2022-10-19T13:06:29.423Z,34.33
2022-10-19T13:09:04.948Z,33.38
2022-10-19T13:14:26.466Z,34.05
2022-10-19T13:16:59.601Z,33.80
2022-10-19T13:19:26.792Z,36.10
2022-10-19T13:22:20.477Z,37.08
2022-10-19T13:25:21.669Z,33.92
2022-10-19T13:27:52.230Z,29.40
2022-10-19T13:30:37.157Z,35.95
2022-10-19T13:33:25.715Z,38.00
2022-10-19T13:35:58.669Z,36.97
2022-10-19T13:38:59.604Z,39.70
2022-10-19T13:41:37.252Z,35.53
2022-10-19T13:44:20.974Z,35.42
2022-10-19T13:46:52.180Z,34.28
2022-10-19T13:49:32.611Z,32.53
2022-10-19T13:52:02.585Z,34.72
2022-10-19T13:54:51.350Z,35.60
2022-10-19T13:57:44.128Z,28.63
2022-10-19T14:00:21.249Z,31.98
2022-10-19T14:02:54.533Z,29.52
2022-10-19T14:06:02.252Z,32.10
2022-10-19T14:08:40.575Z,32.83
2022-10-19T14:11:35.138Z,32.03
2022-10-19T14:14:13.421Z,30.20
2022-10-19T14:16:56.082Z,28.80
2022-10-19T14:19:43.644Z,30.75
2022-10-19T14:22:38.817Z,32.35
2022-10-19T14:25:18.294Z,27.42
2022-10-19T14:27:54.320Z,31.75
2022-10-19T14:30:31.774Z,30.38
2022-10-19T14:33:02.843Z,27.67
2022-10-19T14:35:36.243Z,29.02
2022-10-19T14:38:08.733Z,29.58
2022-10-19T14:40:41.465Z,26.52
2022-10-19T14:43:32.540Z,30.08
2022-10-19T14:46:08.562Z,27.65
2022-10-19T14:48:36.944Z,27.48
2022-10-19T14:51:10.171Z,28.73
2022-10-19T14:53:54.549Z,25.23
2022-10-19T14:56:33.318Z,27.83
2022-10-19T14:59:04.980Z,27.20
2022-10-19T15:01:32.124Z,25.95
2022-10-19T15:04:00.107Z,28.08
2022-10-19T15:06:32.037Z,28.38
2022-10-19T15:09:09.400Z,29.30
2022-10-19T15:11:47.441Z,26.70
2022-10-19T15:14:19.447Z,30.08
2022-10-19T15:16:50.691Z,28.27
2022-10-19T15:19:29.398Z,30.30
2022-10-19T15:22:14.690Z,30.60
2022-10-19T15:25:06.380Z,30.95
2022-10-19T15:30:31.168Z,31.38
2022-10-19T15:33:21.014Z,31.65
2022-10-19T15:35:49.620Z,30.08
2022-10-19T15:38:25.391Z,29.52
2022-10-19T15:41:02.410Z,28.35
2022-10-19T15:43:34.975Z,30.27
2022-10-19T15:46:21.831Z,29.35
2022-10-19T15:49:01.782Z,30.38
2022-10-19T15:51:30.614Z,29.50
2022-10-19T15:54:02.019Z,30.13
2022-10-19T15:56:30.911Z,30.33
2022-10-19T15:59:00.673Z,28.27
2022-10-19T16:01:30.186Z,26.15
2022-10-19T16:03:57.261Z,26.83
2022-10-19T16:06:27.282Z,30.40
2022-10-19T16:08:54.328Z,27.75
2022-10-19T16:11:23.303Z,27.70
2022-10-19T16:13:51.913Z,28.60
2022-10-19T16:16:28.560Z,28.42
2022-10-19T16:18:56.224Z,30.67
2022-10-19T16:21:26.483Z,26.45
2022-10-19T16:23:56.827Z,27.77
2022-10-19T16:26:25.385Z,29.77
2022-10-19T16:28:55.511Z,29.48
2022-10-19T16:31:23.223Z,27.58
2022-10-19T16:33:50.249Z,31.25
2022-10-19T16:36:20.250Z,31.35
2022-10-19T16:38:48.769Z,30.40
2022-10-19T16:41:17.910Z,29.90
2022-10-19T16:43:47.489Z,29.80
2022-10-19T16:46:16.208Z,29.73
2022-10-19T16:48:43.449Z,28.45
2022-10-19T16:51:27.572Z,28.02
2022-10-19T16:54:00.404Z,29.20
2022-10-19T16:56:29.503Z,27.23
2022-10-19T16:59:01.272Z,30.38
2022-10-19T17:01:29.077Z,29.42
2022-10-19T17:03:56.761Z,31.17
2022-10-19T17:06:27.704Z,28.70
2022-10-19T17:09:30.202Z,27.67
2022-10-19T17:11:47.231Z,30.67
2022-10-19T17:14:14.234Z,29.52
2022-10-19T17:16:41.381Z,29.45
2022-10-19T17:19:09.238Z,28.17
2022-10-19T17:21:38.632Z,30.42
2022-10-19T17:24:08.622Z,27.00
2022-10-19T17:26:39.090Z,26.52
2022-10-19T17:29:08.903Z,28.55
2022-10-19T17:31:40.249Z,30.15
2022-10-19T17:34:08.624Z,29.95
2022-10-19T17:39:11.076Z,31.67
2022-10-19T17:41:38.171Z,31.27
2022-10-19T17:44:05.437Z,27.63
2022-10-19T17:46:35.891Z,33.05
2022-10-19T17:49:03.649Z,31.60
2022-10-19T17:51:35.007Z,32.63
2022-10-19T17:54:04.817Z,32.50
2022-10-19T17:56:31.917Z,32.42
2022-10-19T17:59:05.118Z,35.20
2022-10-19T18:01:31.800Z,32.88
2022-10-19T18:04:07.947Z,35.25
2022-10-19T18:06:39.958Z,34.03
2022-10-19T18:09:08.891Z,34.05
2022-10-19T18:11:41.858Z,32.97
2022-10-19T18:14:12.064Z,32.95
2022-10-19T18:16:45.402Z,31.88
2022-10-19T18:19:14.159Z,35.22
2022-10-19T18:21:43.530Z,36.40
2022-10-19T18:24:21.385Z,36.10
2022-10-19T18:26:51.627Z,36.10
2022-10-19T18:29:24.188Z,33.47
2022-10-19T18:31:52.462Z,36.15
2022-10-19T18:34:26.537Z,37.00
2022-10-19T18:36:57.621Z,35.42
2022-10-19T18:39:24.344Z,33.78
2022-10-19T18:41:54.703Z,35.65
2022-10-19T18:44:26.596Z,34.65
2022-10-19T18:46:57.183Z,33.65
2022-10-19T18:49:24.503Z,35.83
2022-10-19T18:51:55.088Z,33.40
2022-10-19T18:56:49.450Z,33.10
2022-10-19T18:59:16.194Z,33.28
2022-10-19T19:01:42.954Z,33.55
2022-10-19T19:04:10.373Z,32.80
2022-10-19T19:06:40.573Z,32.90
2022-10-19T19:09:19.815Z,32.33
2022-10-19T19:11:48.707Z,34.85
2022-10-19T19:14:18.640Z,34.90
2022-10-19T19:16:48.750Z,36.30
2022-10-19T19:19:21.180Z,36.38
2022-10-19T19:21:51.756Z,36.65
2022-10-19T19:24:22.536Z,35.28
2022-10-19T19:26:54.665Z,35.88
2022-10-19T19:29:22.429Z,37.15
2022-10-19T19:31:49.206Z,38.55
2022-10-19T19:34:17.105Z,36.33
2022-10-19T19:36:49.696Z,36.95
2022-10-19T19:39:20.174Z,36.40
2022-10-19T19:41:48.761Z,36.83
2022-10-19T19:44:16.655Z,35.90
2022-10-19T19:46:44.528Z,34.50
2022-10-19T19:49:11.994Z,36.75
2022-10-19T19:51:39.505Z,36.35
2022-10-19T19:54:06.516Z,35.90
2022-10-19T19:56:34.811Z,35.08
2022-10-19T19:59:03.854Z,33.83
2022-10-19T20:01:31.287Z,34.00
2022-10-19T20:06:31.077Z,36.78
2022-10-19T20:08:58.545Z,34.85
2022-10-19T20:11:27.518Z,37.08
2022-10-19T20:13:54.528Z,36.17
2022-10-19T20:16:32.147Z,36.63
2022-10-19T20:19:11.482Z,35.65
2022-10-19T20:21:39.247Z,34.00
2022-10-19T20:24:07.943Z,34.33
2022-10-19T20:26:35.612Z,36.80
2022-10-19T20:29:03.975Z,35.60
2022-10-19T20:31:32.674Z,34.60
2022-10-19T20:33:59.940Z,36.45
2022-10-19T20:36:27.239Z,34.35
2022-10-19T20:39:00.549Z,35.75
2022-10-19T20:41:29.029Z,35.80
2022-10-19T20:43:56.031Z,35.47
2022-10-19T20:46:25.584Z,35.08
2022-10-19T20:48:52.344Z,35.72
2022-10-19T20:51:40.872Z,35.65
2022-10-19T20:54:12.118Z,34.38
2022-10-19T20:56:44.506Z,34.65
2022-10-19T20:59:22.793Z,34.28
2022-10-19T21:01:51.508Z,33.38
2022-10-19T21:04:25.884Z,33.58
2022-10-19T21:06:52.870Z,36.38
2022-10-19T21:09:23.976Z,40.10
2022-10-19T21:11:51.834Z,39.88
2022-10-19T21:14:27.196Z,34.58
2022-10-19T21:16:58.806Z,36.05
2022-10-19T21:19:29.754Z,34.70
2022-10-19T21:22:02.296Z,34.13
2022-10-19T21:24:36.940Z,36.70
2022-10-19T21:27:07.572Z,34.28
2022-10-19T21:29:34.556Z,34.90
2022-10-19T21:32:02.552Z,35.90
2022-10-19T21:34:31.695Z,34.80
2022-10-19T21:37:01.695Z,35.55
2022-10-19T21:39:28.684Z,36.00
2022-10-19T21:41:55.758Z,35.05
2022-10-19T21:44:23.285Z,35.17
2022-10-19T21:46:50.473Z,34.63
2022-10-19T21:49:17.867Z,34.40
2022-10-19T21:51:47.917Z,34.70
2022-10-19T21:54:19.576Z,36.75
2022-10-19T21:59:16.139Z,36.90
2022-10-19T22:01:43.111Z,35.17
2022-10-19T22:04:13.924Z,36.33
2022-10-19T22:06:41.372Z,36.53
2022-10-19T22:09:09.986Z,35.50
2022-10-19T22:11:36.701Z,36.05
2022-10-19T22:14:05.377Z,34.85
2022-10-19T22:16:33.653Z,35.08
2022-10-19T22:19:00.517Z,35.10
2022-10-19T22:21:30.318Z,35.33
2022-10-19T22:24:00.600Z,32.28
2022-10-19T22:26:33.473Z,33.83
2022-10-19T22:29:01.610Z,34.30
2022-10-19T22:31:31.047Z,36.10
2022-10-19T22:33:59.983Z,34.42
2022-10-19T22:36:29.117Z,34.10
2022-10-19T22:38:55.983Z,37.05
2022-10-19T22:41:22.935Z,35.10
2022-10-19T22:43:51.046Z,34.60
2022-10-19T22:46:17.847Z,34.60
2022-10-19T22:48:44.754Z,34.17
2022-10-19T22:51:12.913Z,36.25
2022-10-19T22:53:39.705Z,34.38
2022-10-19T22:56:06.965Z,38.20
2022-10-19T22:58:33.823Z,35.00
2022-10-19T23:01:05.207Z,36.00
2022-10-19T23:03:32.152Z,35.85
2022-10-19T23:05:59.348Z,35.50
2022-10-19T23:08:31.800Z,35.67
2022-10-19T23:10:58.722Z,34.53
2022-10-19T23:13:25.872Z,35.67
2022-10-19T23:15:52.772Z,34.45
2022-10-19T23:18:19.866Z,35.47
2022-10-19T23:21:13.670Z,35.30
2022-10-19T23:23:43.674Z,32.80
2022-10-19T23:26:13.450Z,33.22
2022-10-19T23:28:42.205Z,34.47
2022-10-19T23:31:10.222Z,34.35
2022-10-19T23:33:37.136Z,35.00
2022-10-19T23:36:09.094Z,34.42
2022-10-19T23:38:36.295Z,35.08
2022-10-19T23:41:07.604Z,35.67
2022-10-19T23:46:03.952Z,36.42
2022-10-19T23:48:30.860Z,34.97
2022-10-19T23:51:06.504Z,35.95
2022-10-19T23:53:40.021Z,34.25
2022-10-19T23:56:23.207Z,36.38
2022-10-19T23:58:51.488Z,35.97
